Time;durP1;ratioP1;P1;durP2;ratioP2;P2;SDS_P1;SDS_P2;PMS_P1;PMS_P2;Temp;Humidity;BMP_temperature;BMP_pressure;BME280_temperature;BME280_humidity;BME280_pressure;Samples;Min_cycle;Max_cycle;Signal;HPM_P1;HPM_P2
2022/05/17 00:00:51;;;;;;;22.73;11.02;;;;;;;-144.47;72.04;53306.97;4984311;28;20022;-66
2022/05/17 00:03:17;;;;;;;22.00;11.40;;;;;;;-144.47;72.30;53275.19;4989839;28;20448;-66
2022/05/17 00:05:45;;;;;;;21.88;10.88;;;;;;;-144.47;72.58;53299.03;4990314;28;20548;-66
2022/05/17 00:08:11;;;;;;;24.00;10.70;;;;;;;-144.47;72.11;53289.09;4991218;28;20061;-66
2022/05/17 00:10:37;;;;;;;22.80;9.93;;;;;;;-144.47;72.37;53251.34;4990892;28;20030;-65
2022/05/17 00:13:03;;;;;;;21.80;10.88;;;;;;;-144.47;72.15;53293.06;4991392;28;20124;-66
2022/05/17 00:15:28;;;;;;;21.23;10.25;;;;;;;-144.47;71.88;53322.88;5020952;22;20053;-70
2022/05/17 00:17:54;;;;;;;17.58;10.93;;;;;;;-144.47;72.03;53227.53;5028329;28;20033;-68
2022/05/17 00:20:21;;;;;;;21.70;10.55;;;;;;;-144.47;71.74;53269.22;5027269;28;20084;-70
2022/05/17 00:22:46;;;;;;;21.60;10.63;;;;;;;-144.47;71.88;53267.25;5028227;28;20128;-67
2022/05/17 00:25:14;;;;;;;25.02;11.20;;;;;;;-144.47;71.63;53283.13;5026282;28;20153;-70
2022/05/17 00:27:40;;;;;;;16.10;9.70;;;;;;;-144.47;71.94;53275.19;5027783;28;20052;-70
2022/05/17 00:30:08;;;;;;;18.88;10.55;;;;;;;-144.47;72.40;53271.22;5024083;28;20068;-69
2022/05/17 00:32:33;;;;;;;33.10;11.90;;;;;;;-144.47;72.51;53277.19;5015586;28;20394;-67
2022/05/17 00:34:58;;;;;;;22.77;10.82;;;;;;;-144.47;72.45;53261.28;5026920;28;20029;-70
2022/05/17 00:37:24;;;;;;;21.80;10.93;;;;;;;-144.47;72.45;53269.22;5027394;28;20082;-67
2022/05/17 00:39:49;;;;;;;25.98;11.10;;;;;;;-144.47;72.54;53305.00;5026273;28;20033;-70
2022/05/17 00:42:15;;;;;;;19.75;10.68;;;;;;;-144.47;72.81;53281.16;5027979;28;20033;-71
2022/05/17 00:44:43;;;;;;;25.27;12.15;;;;;;;-144.47;72.95;53257.31;5028128;28;20040;-71
2022/05/17 00:47:15;;;;;;;23.17;11.18;;;;;;;-144.47;73.18;53285.13;5027927;28;20021;-72
2022/05/17 00:49:53;;;;;;;24.50;12.48;;;;;;;-144.47;73.45;53301.03;5027670;28;20116;-69
2022/05/17 00:52:23;;;;;;;24.15;12.50;;;;;;;-144.47;73.52;53273.22;5027375;28;20026;-70
2022/05/17 00:54:52;;;;;;;23.98;13.18;;;;;;;-144.47;73.94;53257.31;5027208;28;20032;-68
2022/05/17 00:57:35;;;;;;;23.38;12.95;;;;;;;-144.47;73.72;53312.94;5027396;28;20022;-69
2022/05/17 01:00:05;;;;;;;23.35;13.85;;;;;;;-144.47;74.17;53285.13;5026547;28;20087;-68
2022/05/17 01:02:31;;;;;;;27.80;14.18;;;;;;;-144.47;74.09;53320.88;5028011;28;20115;-67
2022/05/17 01:04:57;;;;;;;23.15;13.43;;;;;;;-144.47;74.17;53308.97;5027423;28;20485;-70
2022/05/17 01:07:28;;;;;;;26.08;14.13;;;;;;;-144.47;74.25;53283.13;5026993;28;20449;-67
2022/05/17 01:09:53;;;;;;;28.02;15.63;;;;;;;-144.47;74.56;53295.06;5025602;28;20017;-68
2022/05/17 01:12:19;;;;;;;27.42;14.55;;;;;;;-144.47;74.63;53305.00;5027616;28;20451;-68
2022/05/17 01:15:00;;;;;;;24.05;15.55;;;;;;;-144.47;74.78;53273.22;5027604;28;20049;-69
2022/05/17 01:17:35;;;;;;;37.17;16.55;;;;;;;-144.47;74.84;53295.06;5027799;28;20097;-68
2022/05/17 01:20:05;;;;;;;25.55;14.77;;;;;;;-144.47;74.59;53283.13;5027363;28;20079;-70
2022/05/17 01:22:30;;;;;;;24.48;14.50;;;;;;;-144.47;74.34;53320.88;5026977;28;20209;-66
2022/05/17 01:24:55;;;;;;;30.35;16.02;;;;;;;-144.47;74.24;53299.03;5027530;28;20548;-68
2022/05/17 01:27:30;;;;;;;27.73;14.45;;;;;;;-144.47;74.12;53332.81;5027064;28;20040;-69
2022/05/17 01:29:56;;;;;;;29.65;14.88;;;;;;;-144.47;74.10;53305.00;5027266;28;20415;-68
2022/05/17 01:32:22;;;;;;;29.55;14.27;;;;;;;-144.47;73.80;53318.91;5025178;28;20029;-71
2022/05/17 01:34:48;;;;;;;25.73;13.95;;;;;;;-144.47;73.89;53261.28;5027092;28;20033;-69
2022/05/17 01:37:14;;;;;;;28.35;14.85;;;;;;;-144.47;74.24;53346.72;5026705;28;20024;-71
2022/05/17 01:39:40;;;;;;;25.27;14.68;;;;;;;-144.47;74.74;53322.88;5024880;28;20075;-69
2022/05/17 01:42:06;;;;;;;24.77;14.45;;;;;;;-144.47;74.46;53299.03;5027767;28;20447;-68
2022/05/17 01:44:32;;;;;;;20.45;13.73;;;;;;;-144.47;74.81;53297.03;5027777;28;20018;-70
2022/05/17 01:46:57;;;;;;;21.27;12.82;;;;;;;-144.47;74.80;53289.09;5026510;28;20021;-69
2022/05/17 01:49:22;;;;;;;22.00;13.13;;;;;;;-144.47;75.03;53305.00;5011352;28;20067;-69
2022/05/17 01:51:48;;;;;;;24.65;12.82;;;;;;;-144.47;74.93;53289.09;5031300;28;20034;-69
2022/05/17 01:54:13;;;;;;;26.33;11.90;;;;;;;-144.47;75.24;53287.13;5033066;28;20075;-71
2022/05/17 01:56:39;;;;;;;25.92;12.55;;;;;;;-144.47;75.68;53281.16;5030438;28;20021;-68
2022/05/17 01:59:04;;;;;;;17.45;11.75;;;;;;;-144.47;75.26;53305.00;5027105;28;20021;-68
2022/05/17 02:01:30;;;;;;;21.02;11.13;;;;;;;-144.47;75.11;53312.94;5027345;28;20575;-67
2022/05/17 02:03:55;;;;;;;18.13;10.73;;;;;;;-144.47;74.91;53265.25;5027128;28;20098;-68
2022/05/17 02:06:22;;;;;;;17.92;10.85;;;;;;;-144.47;74.99;53281.16;5027609;28;20025;-69
2022/05/17 02:08:48;;;;;;;20.77;12.05;;;;;;;-144.47;74.78;53334.78;5030207;28;20079;-68
2022/05/17 02:11:13;;;;;;;17.02;11.35;;;;;;;-144.47;74.76;53291.09;5029317;28;20468;-67
2022/05/17 02:13:38;;;;;;;22.13;14.02;;;;;;;-144.47;75.19;53305.00;5029986;28;20125;-67
2022/05/17 02:16:05;;;;;;;23.25;14.95;;;;;;;-144.47;75.13;53310.94;5030537;28;20029;-68
2022/05/17 02:18:31;;;;;;;23.70;14.85;;;;;;;-144.47;75.33;53269.22;5030770;28;20258;-69
2022/05/17 02:20:56;;;;;;;24.70;15.30;;;;;;;-144.47;75.41;53318.91;5031089;28;20029;-67
2022/05/17 02:23:22;;;;;;;23.75;15.73;;;;;;;-144.47;75.82;53305.00;5031099;28;20507;-68
2022/05/17 02:25:47;;;;;;;30.33;15.68;;;;;;;-144.47;75.61;53297.03;5026688;28;20025;-67
2022/05/17 02:28:15;;;;;;;27.17;17.25;;;;;;;-144.47;76.28;53297.03;5028598;28;20036;-67
2022/05/17 02:30:42;;;;;;;29.83;16.80;;;;;;;-144.47;76.38;53316.91;5024927;28;20026;-67
2022/05/17 02:33:08;;;;;;;29.20;17.83;;;;;;;-144.47;76.83;53328.81;5030550;28;20132;-69
2022/05/17 02:35:33;;;;;;;29.58;18.95;;;;;;;-144.47;76.89;53354.66;5030008;28;20028;-67
2022/05/17 02:37:59;;;;;;;31.65;19.20;;;;;;;-144.47;76.39;53346.72;5029872;28;20021;-69
2022/05/17 02:40:25;;;;;;;37.70;21.80;;;;;;;-144.47;76.31;53342.72;5020054;28;20022;-69
2022/05/17 02:42:50;;;;;;;33.85;20.48;;;;;;;-144.47;76.19;53318.91;5028609;28;20083;-67
2022/05/17 02:45:15;;;;;;;35.65;19.08;;;;;;;-144.47;75.73;53289.09;5028251;28;20026;-65
2022/05/17 02:47:41;;;;;;;27.60;18.27;;;;;;;-144.47;75.56;53297.03;5029539;28;20040;-67
2022/05/17 02:50:09;;;;;;;27.88;17.50;;;;;;;-144.47;75.24;53308.97;5029907;28;20017;-69
2022/05/17 02:52:35;;;;;;;25.88;16.50;;;;;;;-144.47;74.97;53289.09;5030553;28;20029;-69
2022/05/17 02:55:00;;;;;;;34.25;18.75;;;;;;;-144.47;74.55;53289.09;5029361;28;20511;-70
2022/05/17 02:57:25;;;;;;;27.05;17.75;;;;;;;-144.47;74.43;53344.72;5028276;28;20033;-68
2022/05/17 02:59:50;;;;;;;31.00;18.60;;;;;;;-144.47;75.02;53324.84;5029931;28;20484;-70
2022/05/17 03:02:16;;;;;;;29.98;18.63;;;;;;;-144.47;74.96;53297.03;5029933;28;20806;-68
2022/05/17 03:04:41;;;;;;;34.53;20.23;;;;;;;-144.47;75.85;53332.81;5029493;28;20047;-71
2022/05/17 03:07:06;;;;;;;31.80;19.95;;;;;;;-144.47;76.13;53332.81;5028535;28;20021;-70
2022/05/17 03:09:32;;;;;;;34.47;19.58;;;;;;;-144.47;76.06;53312.94;5024416;28;20089;-67
2022/05/17 03:11:57;;;;;;;39.45;19.35;;;;;;;-144.47;76.35;53334.78;5026886;28;20067;-69
2022/05/17 03:14:22;;;;;;;29.60;18.50;;;;;;;-144.47;76.34;53330.81;5029677;28;20145;-66
2022/05/17 03:16:48;;;;;;;28.05;17.33;;;;;;;-144.47;76.63;53316.91;5024555;28;20054;-69
2022/05/17 03:19:14;;;;;;;32.10;19.20;;;;;;;-144.47;76.40;53330.81;5025267;28;20025;-68
2022/05/17 03:21:39;;;;;;;36.85;19.67;;;;;;;-144.47;76.49;53308.97;5029532;28;20036;-68
2022/05/17 03:24:05;;;;;;;38.80;21.00;;;;;;;-144.47;76.45;53312.94;5027798;28;20408;-66
2022/05/17 03:26:31;;;;;;;34.42;20.42;;;;;;;-144.47;76.67;53320.88;5029742;28;20270;-66
2022/05/17 03:28:58;;;;;;;35.38;19.63;;;;;;;-144.47;76.88;53366.56;5028688;28;20025;-69
2022/05/17 03:31:24;;;;;;;33.65;19.35;;;;;;;-144.47;76.51;53326.84;5029929;28;20112;-68
2022/05/17 03:33:49;;;;;;;32.05;20.27;;;;;;;-144.47;76.25;53308.97;5029455;28;20457;-68
2022/05/17 03:36:14;;;;;;;40.63;21.00;;;;;;;-144.47;76.80;53316.91;5029338;28;20022;-69
2022/05/17 03:38:39;;;;;;;32.45;20.95;;;;;;;-144.47;76.67;53316.91;5026414;28;20017;-67
2022/05/17 03:41:05;;;;;;;40.53;21.38;;;;;;;-144.47;76.70;53338.75;5021513;28;20107;-67
2022/05/17 03:43:30;;;;;;;31.52;19.48;;;;;;;-144.47;76.63;53289.09;5028762;28;20505;-68
2022/05/17 03:45:57;;;;;;;37.35;19.50;;;;;;;-144.47;76.55;53348.69;5028709;28;20025;-68
2022/05/17 03:48:25;;;;;;;32.60;19.40;;;;;;;-144.47;76.37;53336.78;5027295;28;20022;-69
2022/05/17 03:50:50;;;;;;;34.47;19.73;;;;;;;-144.47;76.52;53318.91;5028289;28;20029;-70
2022/05/17 03:53:16;;;;;;;39.03;21.25;;;;;;;-144.47;76.43;53293.06;5028204;28;20035;-67
2022/05/17 03:55:41;;;;;;;39.45;20.25;;;;;;;-144.47;76.38;53326.84;5027874;28;20116;-69
2022/05/17 03:58:07;;;;;;;36.28;20.08;;;;;;;-144.47;76.36;53346.72;5028573;28;20032;-69
2022/05/17 04:00:33;;;;;;;34.80;20.52;;;;;;;-144.47;76.37;53324.84;5028610;28;20034;-68
2022/05/17 04:02:58;;;;;;;32.63;20.50;;;;;;;-144.47;76.67;53285.13;5028468;28;20116;-70
2022/05/17 04:05:24;;;;;;;33.22;19.85;;;;;;;-144.47;76.22;53338.75;5026454;28;20413;-68
2022/05/17 04:07:49;;;;;;;33.67;20.77;;;;;;;-144.47;76.03;53318.91;5021980;28;20033;-71
2022/05/17 04:10:16;;;;;;;35.35;20.00;;;;;;;-144.47;75.61;53344.72;5028383;28;20075;-71
2022/05/17 04:12:42;;;;;;;41.60;20.17;;;;;;;-144.47;75.78;53336.78;5028596;28;20037;-69
2022/05/17 04:15:12;;;;;;;34.72;19.30;;;;;;;-144.47;75.98;53366.56;5020819;28;20099;-68
2022/05/17 04:17:37;;;;;;;34.60;19.23;;;;;;;-144.47;76.11;53299.03;5011027;28;20090;-69
2022/05/17 04:20:03;;;;;;;40.40;18.95;;;;;;;-144.47;76.11;53299.03;5028108;28;20584;-69
2022/05/17 04:22:29;;;;;;;35.70;18.90;;;;;;;-144.47;75.86;53322.88;5028245;28;20032;-71
2022/05/17 04:24:55;;;;;;;34.45;18.98;;;;;;;-144.47;75.96;53334.78;5027940;28;20021;-69
2022/05/17 04:27:22;;;;;;;38.72;20.25;;;;;;;-144.47;75.96;53322.88;5026015;28;20029;-69
2022/05/17 04:29:47;;;;;;;36.30;19.58;;;;;;;-144.47;75.92;53322.88;5018682;28;20033;-70
2022/05/17 04:32:12;;;;;;;36.33;20.30;;;;;;;-144.47;76.18;53336.78;5008615;28;20040;-71
2022/05/17 04:34:38;;;;;;;42.42;20.80;;;;;;;-144.47;76.18;53374.50;5013074;28;20033;-70
2022/05/17 04:37:04;;;;;;;36.80;20.85;;;;;;;-144.47;75.79;53308.97;5024717;28;20068;-69
2022/05/17 04:39:30;;;;;;;36.53;19.27;;;;;;;-144.47;75.66;53352.66;5017855;28;20032;-71
2022/05/17 04:41:56;;;;;;;41.75;22.75;;;;;;;-144.47;75.87;53314.91;5022382;28;20109;-72
2022/05/17 04:44:21;;;;;;;45.22;22.35;;;;;;;-144.47;75.45;53352.66;5028677;28;20602;-73
2022/05/17 04:46:47;;;;;;;44.88;22.23;;;;;;;-144.47;75.53;53364.59;5028054;28;20049;-72
2022/05/17 04:49:12;;;;;;;43.17;23.73;;;;;;;-144.47;75.51;53372.53;5027387;28;20021;-71
2022/05/17 04:51:37;;;;;;;41.67;23.40;;;;;;;-144.47;75.66;53342.72;5028018;28;20030;-71
2022/05/17 04:54:03;;;;;;;44.17;21.25;;;;;;;-144.47;75.38;53360.63;5023357;28;20631;-68
2022/05/17 04:56:28;;;;;;;38.67;21.63;;;;;;;-144.47;75.58;53338.75;5028824;28;20108;-71
2022/05/17 04:58:53;;;;;;;37.42;19.85;;;;;;;-144.47;75.27;53330.81;5028774;28;20048;-70
2022/05/17 05:01:21;;;;;;;39.97;19.90;;;;;;;-144.47;75.38;53332.81;5029264;28;20460;-67
2022/05/17 05:03:46;;;;;;;37.38;20.15;;;;;;;-144.47;75.96;53332.81;5027339;28;20610;-70
2022/05/17 05:06:11;;;;;;;52.40;20.15;;;;;;;-144.47;75.73;53370.53;5026936;28;20026;-69
2022/05/17 05:08:36;;;;;;;36.60;20.27;;;;;;;-144.47;75.83;53350.69;5021688;28;20048;-69
2022/05/17 05:11:02;;;;;;;45.63;18.80;;;;;;;-144.47;75.81;53312.94;5017419;28;20092;-66
2022/05/17 05:13:27;;;;;;;35.20;19.67;;;;;;;-144.47;76.38;53338.75;5027527;28;20024;-70
2022/05/17 05:15:55;;;;;;;44.33;20.77;;;;;;;-144.47;76.78;53352.66;5027357;28;20531;-66
2022/05/17 05:18:20;;;;;;;43.08;20.45;;;;;;;-144.47;76.63;53334.78;5027878;28;20120;-70
2022/05/17 05:20:45;;;;;;;40.08;19.13;;;;;;;-144.47;76.60;53330.81;5027242;28;20109;-69
2022/05/17 05:23:11;;;;;;;39.85;19.23;;;;;;;-144.47;76.40;53370.53;5027829;28;20047;-68
2022/05/17 05:25:37;;;;;;;49.05;19.17;;;;;;;-144.47;76.34;53354.66;5026957;28;20061;-67
2022/05/17 05:28:05;;;;;;;44.22;19.48;;;;;;;-144.47;76.48;53352.66;5028731;28;20021;-69
2022/05/17 05:30:30;;;;;;;40.80;20.13;;;;;;;-144.47;76.12;53382.47;5025137;28;20374;-67
2022/05/17 05:32:57;;;;;;;46.35;20.98;;;;;;;-144.47;76.70;53340.75;5027204;28;20025;-69
2022/05/17 05:35:22;;;;;;;36.28;20.25;;;;;;;-144.47;76.21;53332.81;5027809;28;20040;-66
2022/05/17 05:37:48;;;;;;;45.55;21.52;;;;;;;-144.47;76.52;53350.69;5022423;28;20017;-67
2022/05/17 05:40:15;;;;;;;36.65;20.17;;;;;;;-144.47;76.64;53362.59;5018359;28;20092;-67
2022/05/17 05:42:40;;;;;;;41.53;20.90;;;;;;;-144.47;76.85;53303.00;5032156;28;20087;-66
2022/05/17 05:45:08;;;;;;;46.65;23.25;;;;;;;-144.47;76.96;53318.91;5035886;28;20029;-68
2022/05/17 05:47:33;;;;;;;47.78;23.55;;;;;;;-144.47;77.69;53380.47;5027083;28;20078;-68
2022/05/17 05:49:58;;;;;;;50.20;23.98;;;;;;;-144.47;77.69;53338.75;5017751;28;20017;-66
2022/05/17 05:52:25;;;;;;;52.50;24.65;;;;;;;-144.47;78.42;53346.72;5030870;28;20401;-69
2022/05/17 05:54:50;;;;;;;61.75;24.98;;;;;;;-144.47;78.69;53344.72;5030978;28;20043;-69
2022/05/17 05:57:15;;;;;;;57.83;27.35;;;;;;;-144.47;78.90;53372.53;5031115;28;20025;-68
2022/05/17 05:59:41;;;;;;;55.78;28.73;;;;;;;-144.47;78.85;53350.69;5030036;28;20037;-68
2022/05/17 06:02:07;;;;;;;53.90;26.58;;;;;;;-144.47;78.37;53344.72;5031657;28;20222;-68
2022/05/17 06:04:33;;;;;;;49.60;26.10;;;;;;;-144.47;78.34;53354.66;5031125;28;20029;-68
2022/05/17 06:06:59;;;;;;;68.93;26.40;;;;;;;-144.47;78.09;53336.78;5030839;28;20552;-66
2022/05/17 06:09:25;;;;;;;60.55;27.27;;;;;;;-144.47;78.15;53350.69;5030497;28;20032;-68
2022/05/17 06:11:50;;;;;;;63.40;27.70;;;;;;;-144.47;77.87;53360.63;5030992;28;20022;-67
2022/05/17 06:14:16;;;;;;;59.38;28.13;;;;;;;-144.47;78.09;53354.66;5030586;28;20035;-69
2022/05/17 06:16:41;;;;;;;57.50;28.13;;;;;;;-144.47;78.32;53326.84;5047183;22;20130;-64
2022/05/17 06:19:07;;;;;;;61.38;29.38;;;;;;;-144.47;78.19;53328.81;5029073;28;20112;-64
2022/05/17 06:21:32;;;;;;;60.00;28.75;;;;;;;-144.47;78.09;53376.50;5023684;28;20049;-65
2022/05/17 06:23:58;;;;;;;74.15;31.17;;;;;;;-144.47;78.51;53336.78;5027653;28;20022;-66
2022/05/17 06:26:23;;;;;;;64.47;28.88;;;;;;;-144.47;78.94;53376.50;5023662;28;20180;-65
2022/05/17 06:28:48;;;;;;;60.20;30.17;;;;;;;-144.47;78.54;53374.50;5009972;28;20021;-65
2022/05/17 06:31:14;;;;;;;67.80;32.92;;;;;;;-144.47;79.17;53340.75;5007582;28;20482;-64
2022/05/17 06:33:39;;;;;;;69.65;30.80;;;;;;;-144.47;79.77;53350.69;5005775;28;20438;-65
2022/05/17 06:36:05;;;;;;;70.10;32.53;;;;;;;-144.47;79.91;53338.75;5000332;28;20117;-65
2022/05/17 06:38:31;;;;;;;75.43;33.85;;;;;;;-144.47;80.17;53348.69;5018008;28;20025;-66
2022/05/17 06:40:56;;;;;;;77.35;34.45;;;;;;;-144.47;80.63;53358.63;5009662;28;20022;-64
2022/05/17 06:43:22;;;;;;;79.70;36.60;;;;;;;-144.47;80.94;53358.63;4998815;28;20023;-66
2022/05/17 06:45:48;;;;;;;82.70;35.95;;;;;;;-144.47;80.98;53364.59;4994390;28;20067;-65
2022/05/17 06:48:14;;;;;;;78.70;37.10;;;;;;;-144.47;80.88;53364.59;5001889;28;20371;-64
2022/05/17 06:50:39;;;;;;;78.78;37.53;;;;;;;-144.47;80.83;53380.47;5011466;28;20507;-64
2022/05/17 06:53:07;;;;;;;84.00;38.38;;;;;;;-144.47;80.56;53328.81;4998480;28;20090;-66
2022/05/17 06:55:32;;;;;;;92.63;40.55;;;;;;;-144.47;80.73;53374.50;5002643;28;20544;-68
2022/05/17 06:57:58;;;;;;;88.07;41.22;;;;;;;-144.47;80.74;53368.56;5005380;28;20037;-65
2022/05/17 07:00:23;;;;;;;92.63;42.97;;;;;;;-144.47;81.02;53372.53;5000530;28;20508;-67
2022/05/17 07:02:49;;;;;;;93.85;41.58;;;;;;;-144.47;81.15;53326.84;5008830;28;20600;-64
2022/05/17 07:05:15;;;;;;;94.47;44.22;;;;;;;-144.47;80.64;53366.56;4999984;28;20026;-72
2022/05/17 07:07:40;;;;;;;106.85;45.30;;;;;;;-144.47;80.46;53366.56;5005629;28;20034;-66
2022/05/17 07:13:10;;;;;;;89.22;40.63;;;;;;;-144.47;79.74;53370.53;5000984;28;20507;-65
2022/05/17 07:15:41;;;;;;;97.70;42.22;;;;;;;-144.47;79.75;53338.75;5011430;28;20120;-65
2022/05/17 07:18:08;;;;;;;96.60;44.78;;;;;;;-144.47;79.83;53346.72;4992022;28;20023;-64
2022/05/17 07:20:34;;;;;;;96.25;42.60;;;;;;;-144.47;79.89;53336.78;5007562;28;20026;-64
2022/05/17 07:22:59;;;;;;;103.03;43.90;;;;;;;-144.47;79.69;53336.78;5004458;28;20025;-66
2022/05/17 07:25:25;;;;;;;104.55;44.72;;;;;;;-144.47;79.43;53394.38;5005467;28;20156;-67
2022/05/17 07:27:51;;;;;;;93.28;45.05;;;;;;;-144.47;79.86;53305.00;5004741;28;20470;-68
2022/05/17 07:30:16;;;;;;;105.13;45.15;;;;;;;-144.47;79.83;53362.59;5007368;28;20022;-66
2022/05/17 07:32:41;;;;;;;98.00;44.22;;;;;;;-144.47;79.48;53372.53;5004421;28;20393;-63
2022/05/17 07:35:07;;;;;;;110.85;45.88;;;;;;;-144.47;79.38;53364.59;5004742;28;20400;-67
2022/05/17 07:37:34;;;;;;;98.53;45.47;;;;;;;-144.47;79.13;53390.41;5003880;28;20026;-68
2022/05/17 07:39:59;;;;;;;100.07;43.67;;;;;;;-144.47;78.48;53358.63;5018270;28;20037;-71
2022/05/17 07:42:25;;;;;;;84.70;43.35;;;;;;;-144.47;77.87;53376.50;5004334;28;20022;-65
2022/05/17 07:44:51;;;;;;;101.13;45.15;;;;;;;-144.47;77.72;53344.72;5005965;28;20048;-64
2022/05/17 07:47:16;;;;;;;91.30;42.60;;;;;;;-144.47;77.77;53370.53;5011015;28;20022;-65
2022/05/17 07:49:42;;;;;;;97.10;45.92;;;;;;;-144.47;77.29;53352.66;5009907;28;20037;-66
2022/05/17 07:52:09;;;;;;;91.85;43.13;;;;;;;-144.47;76.87;53374.50;4998999;28;20018;-67
2022/05/17 07:54:36;;;;;;;92.57;44.28;;;;;;;-144.47;77.09;53334.78;4997981;28;20082;-65
2022/05/17 07:57:01;;;;;;;88.38;44.75;;;;;;;-144.47;76.91;53374.50;5010577;28;20120;-64
2022/05/17 07:59:26;;;;;;;96.78;44.00;;;;;;;-144.47;76.64;53338.75;4996771;28;20109;-68
2022/05/17 08:01:52;;;;;;;96.45;45.88;;;;;;;-144.47;76.77;53348.69;5003943;28;20077;-68
2022/05/17 08:04:17;;;;;;;94.30;44.50;;;;;;;-144.47;76.07;53362.59;5004270;28;20037;-67
2022/05/17 08:06:42;;;;;;;95.75;44.00;;;;;;;-144.47;76.26;53348.69;4997793;28;20038;-64
2022/05/17 08:09:08;;;;;;;84.75;43.47;;;;;;;-144.47;75.88;53366.56;5010423;28;20042;-67
2022/05/17 08:11:33;;;;;;;89.97;42.75;;;;;;;-144.47;75.72;53346.72;5010549;28;20480;-66
2022/05/17 08:13:59;;;;;;;83.05;43.03;;;;;;;-144.47;75.12;53342.72;4997505;28;20030;-64
2022/05/17 08:16:24;;;;;;;92.53;43.22;;;;;;;-144.47;74.74;53332.81;4991260;28;20081;-65
2022/05/17 08:18:49;;;;;;;80.65;40.28;;;;;;;-144.47;73.39;53342.72;5004153;28;20088;-64
2022/05/17 08:21:15;;;;;;;77.38;39.58;;;;;;;-144.47;72.23;53322.88;5004029;28;20026;-67
2022/05/17 08:23:40;;;;;;;77.28;39.00;;;;;;;-144.47;71.48;53336.78;5002858;28;20103;-65
2022/05/17 08:28:49;;;;;;;91.13;38.40;;;;;;;-144.47;70.30;53354.66;5012109;28;20048;-66
2022/05/17 08:31:15;;;;;;;85.68;39.70;;;;;;;-144.47;69.76;53362.59;4994148;28;20054;-64
2022/05/17 08:33:40;;;;;;;71.25;38.60;;;;;;;-144.47;69.67;53336.78;5005855;28;20028;-65
2022/05/17 08:36:09;;;;;;;83.18;38.08;;;;;;;-144.47;68.25;53356.63;5001297;28;20034;-66
2022/05/17 08:38:35;;;;;;;83.40;36.55;;;;;;;-144.47;67.36;53356.63;5010962;28;20468;-64
2022/05/17 08:41:09;;;;;;;67.75;34.20;;;;;;;-144.47;66.27;53310.94;5013396;28;20038;-66
2022/05/17 08:43:46;;;;;;;73.30;34.78;;;;;;;-144.47;66.04;53328.81;4997023;28;20048;-65
2022/05/17 08:46:26;;;;;;;61.63;31.77;;;;;;;-144.47;64.37;53308.97;4998543;28;20150;-66
2022/05/17 08:48:55;;;;;;;66.97;34.50;;;;;;;-144.47;63.79;53306.97;4992941;28;20502;-66
2022/05/17 08:51:57;;;;;;;61.33;31.98;;;;;;;-144.47;64.05;53318.91;4991398;28;20034;-66
2022/05/17 08:54:33;;;;;;;54.55;29.33;;;;;;;-144.47;63.40;53332.81;5010563;28;20026;-65
2022/05/17 08:57:12;;;;;;;52.90;27.92;;;;;;;-144.47;62.68;53305.00;5002604;28;20101;-67
2022/05/17 08:59:37;;;;;;;44.58;24.35;;;;;;;-144.47;61.84;53275.19;5002841;28;20378;-63
2022/05/17 09:02:11;;;;;;;66.40;28.75;;;;;;;-144.47;62.99;53324.84;4998724;28;20121;-66
2022/05/17 09:04:43;;;;;;;52.83;27.83;;;;;;;-144.47;63.18;53316.91;4996292;28;20145;-66
2022/05/17 09:07:20;;;;;;;51.80;26.85;;;;;;;-144.47;63.34;53318.91;5004654;28;20030;-64
2022/05/17 09:10:14;;;;;;;60.13;27.42;;;;;;;-144.47;63.68;53322.88;5010196;28;20041;-64
2022/05/17 09:12:56;;;;;;;51.17;22.58;;;;;;;-144.47;61.74;53285.13;4989176;28;20112;-65
2022/05/17 09:15:22;;;;;;;52.33;23.95;;;;;;;-144.47;62.57;53305.00;5000968;28;20492;-65
2022/05/17 09:17:47;;;;;;;43.30;22.17;;;;;;;-144.47;62.04;53306.97;4990571;28;20027;-66
2022/05/17 09:20:18;;;;;;;37.65;19.20;;;;;;;-144.47;61.76;53271.22;5003485;28;20043;-66
2022/05/17 09:22:44;;;;;;;40.42;20.70;;;;;;;-144.47;62.03;53316.91;5008997;28;20041;-66
2022/05/17 09:25:22;;;;;;;25.70;16.20;;;;;;;-144.47;60.85;53316.91;5009040;28;20021;-66
2022/05/17 09:27:52;;;;;;;25.08;13.25;;;;;;;-144.47;59.07;53310.94;5009192;28;20026;-64
2022/05/17 09:30:23;;;;;;;27.52;13.43;;;;;;;-144.47;58.93;53293.06;4995577;28;20037;-67
2022/05/17 09:33:00;;;;;;;24.90;12.80;;;;;;;-144.47;56.76;53308.97;4989856;28;20346;-64
2022/05/17 09:35:25;;;;;;;24.55;12.75;;;;;;;-144.47;57.06;53269.22;5003167;28;20188;-67
2022/05/17 09:37:53;;;;;;;41.92;21.67;;;;;;;-144.47;56.76;53261.28;5006904;28;20094;-63
2022/05/17 09:40:27;;;;;;;39.33;15.70;;;;;;;-144.47;55.89;53259.31;5011091;28;20036;-65
2022/05/17 09:43:01;;;;;;;26.48;14.32;;;;;;;-144.47;54.83;53259.31;4999034;28;20026;-66
2022/05/17 09:46:05;;;;;;;26.15;15.07;;;;;;;-144.47;56.31;53267.25;5001266;28;20033;-66
2022/05/17 09:54:40;;;;;;;26.10;13.20;;;;;;;-144.47;54.95;53241.44;5008956;28;20036;-64
2022/05/17 09:57:23;;;;;;;23.50;13.88;;;;;;;-144.47;53.59;53253.34;4992464;28;20026;-67
2022/05/17 09:59:54;;;;;;;39.13;13.77;;;;;;;-144.47;52.80;53265.25;5001890;28;20102;-63
2022/05/17 10:02:28;;;;;;;35.63;13.70;;;;;;;-144.47;52.75;53241.44;5000970;28;20060;-64
2022/05/17 10:04:57;;;;;;;20.10;11.75;;;;;;;-144.47;52.95;53263.28;4990027;28;20042;-67
2022/05/17 10:07:27;;;;;;;21.52;11.15;;;;;;;-144.47;52.48;53291.09;5001985;28;20039;-66
2022/05/17 10:09:53;;;;;;;27.55;11.77;;;;;;;-144.47;52.61;53257.31;4996235;28;20026;-66
2022/05/17 10:12:37;;;;;;;24.20;11.43;;;;;;;-144.47;52.44;53269.22;5008277;28;20060;-64
2022/05/17 10:15:08;;;;;;;28.63;10.95;;;;;;;-144.47;52.61;53213.63;4998263;28;20485;-66
2022/05/17 10:17:42;;;;;;;26.10;13.60;;;;;;;-144.47;52.03;53249.38;4996111;28;20049;-66
2022/05/17 10:20:23;;;;;;;22.13;12.05;;;;;;;-144.47;52.00;53277.19;4998046;28;20509;-64
2022/05/17 10:23:07;;;;;;;21.63;11.65;;;;;;;-144.47;52.83;53279.16;4997360;28;20040;-65
2022/05/17 10:25:57;;;;;;;28.25;12.57;;;;;;;-144.47;52.70;53263.28;4999880;28;20026;-64
2022/05/17 10:28:41;;;;;;;19.30;10.57;;;;;;;-144.47;52.95;53243.41;5012124;28;20631;-66
2022/05/17 10:31:26;;;;;;;18.48;10.30;;;;;;;-144.47;51.27;53261.28;5003971;28;20040;-67
2022/05/17 10:34:17;;;;;;;16.73;8.77;;;;;;;-144.47;50.09;53231.50;5012510;28;20137;-66
2022/05/17 10:36:46;;;;;;;17.55;9.25;;;;;;;-144.47;49.45;53245.41;5011935;28;20026;-65
2022/05/17 10:39:28;;;;;;;13.98;7.57;;;;;;;-144.47;50.15;53265.25;5015518;28;20026;-65
2022/05/17 10:41:54;;;;;;;17.45;9.25;;;;;;;-144.47;49.88;53245.41;5008011;28;20030;-67
2022/05/17 10:44:21;;;;;;;20.38;8.68;;;;;;;-144.47;49.03;53287.13;5002170;28;20070;-67
2022/05/17 10:46:54;;;;;;;13.30;7.65;;;;;;;-144.47;48.34;53251.34;5007853;28;20025;-64
2022/05/17 10:49:47;;;;;;;19.25;8.10;;;;;;;-144.47;49.73;53229.50;5011427;28;20140;-65
2022/05/17 10:52:49;;;;;;;21.17;11.10;;;;;;;-144.47;51.08;53261.28;5001950;28;20035;-64
2022/05/17 10:55:26;;;;;;;22.33;12.18;;;;;;;-144.47;51.56;53233.47;5010107;28;20029;-66
2022/05/17 10:57:55;;;;;;;18.17;11.38;;;;;;;-144.47;51.57;53241.44;5009367;28;20104;-67
2022/05/17 11:00:32;;;;;;;21.08;12.15;;;;;;;-144.47;51.46;53273.22;4989997;28;20030;-63
2022/05/17 11:03:06;;;;;;;18.55;11.02;;;;;;;-144.47;51.81;53253.34;4995085;28;20041;-64
2022/05/17 11:05:59;;;;;;;17.98;9.55;;;;;;;-144.47;51.26;53277.19;5000337;28;20022;-66
2022/05/17 11:09:05;;;;;;;15.43;9.80;;;;;;;-144.47;51.21;53277.19;5006100;28;20093;-64
2022/05/17 11:11:50;;;;;;;20.08;9.75;;;;;;;-144.47;52.03;53257.31;4994421;28;20034;-65
2022/05/17 11:14:22;;;;;;;24.23;11.32;;;;;;;-144.47;52.63;53261.28;4998211;28;20048;-66
2022/05/17 11:16:57;;;;;;;18.80;9.73;;;;;;;-144.47;52.89;53265.25;5011372;28;20113;-67
2022/05/17 11:19:25;;;;;;;19.83;11.35;;;;;;;-144.47;53.52;53281.16;4999490;28;20049;-64